createdAt,value
2023-05-21T00:10:27.061Z,2.10
2023-05-21T00:25:28.933Z,2.13
2023-05-21T00:40:31.293Z,1.80
2023-05-21T00:55:33.298Z,1.93
2023-05-21T01:10:35.178Z,2.00
2023-05-21T01:25:37.181Z,2.10
2023-05-21T01:41:11.645Z,1.83
2023-05-21T01:56:13.439Z,2.03
2023-05-21T02:11:15.470Z,2.23
2023-05-21T02:26:17.197Z,2.20
2023-05-21T02:41:18.909Z,2.30
2023-05-21T02:56:20.714Z,2.23
2023-05-21T03:11:22.426Z,2.10
2023-05-21T03:26:24.916Z,2.40
2023-05-21T03:41:26.715Z,2.40
2023-05-21T03:56:28.471Z,2.40
2023-05-21T04:11:30.267Z,2.50
2023-05-21T04:26:32.086Z,2.33
2023-05-21T04:41:33.856Z,2.70
2023-05-21T04:56:35.532Z,2.50
2023-05-21T05:11:37.283Z,2.80
2023-05-21T05:26:39.016Z,2.50
2023-05-21T05:41:40.758Z,2.53
2023-05-21T05:56:42.513Z,2.40
2023-05-21T06:11:44.416Z,2.73
2023-05-21T06:26:46.102Z,2.17
2023-05-21T06:41:47.809Z,2.53
2023-05-21T06:56:49.858Z,2.23
2023-05-21T07:11:51.713Z,2.67
2023-05-21T07:26:53.554Z,2.50
2023-05-21T07:41:55.221Z,2.30
2023-05-21T07:56:57.093Z,2.63
2023-05-21T08:11:58.852Z,3.00
2023-05-21T08:27:00.582Z,2.60
2023-05-21T08:42:22.578Z,2.80
2023-05-21T08:57:31.979Z,3.03
2023-05-21T09:12:34.904Z,2.87
2023-05-21T09:27:36.980Z,3.10
2023-05-21T09:42:46.175Z,2.93
2023-05-21T09:57:50.895Z,3.40
2023-05-21T10:12:58.329Z,3.33
2023-05-21T10:28:00.271Z,3.50
2023-05-21T10:43:13.607Z,3.33
2023-05-21T10:58:34.844Z,3.83
2023-05-21T11:13:47.936Z,3.40
2023-05-21T11:29:04.987Z,3.80
2023-05-21T11:44:09.068Z,3.77
2023-05-21T11:59:17.131Z,3.73
2023-05-21T12:14:21.884Z,4.17
2023-05-21T12:29:23.763Z,4.37
2023-05-21T12:44:31.047Z,4.33
2023-05-21T12:59:51.447Z,4.83
2023-05-21T13:14:58.159Z,4.73
2023-05-21T13:30:00.008Z,5.40
2023-05-21T13:45:01.961Z,5.30
2023-05-21T14:00:04.499Z,4.90
2023-05-21T14:15:06.969Z,4.47
2023-05-21T14:30:09.262Z,4.53
2023-05-21T14:45:19.004Z,4.80
2023-05-21T15:00:21.177Z,4.80
2023-05-21T15:15:22.906Z,4.67
2023-05-21T15:30:24.801Z,4.40
2023-05-21T15:45:26.714Z,4.50
2023-05-21T16:00:28.464Z,4.67
2023-05-21T16:15:30.540Z,4.90
2023-05-21T16:30:32.292Z,4.87
2023-05-21T16:45:41.973Z,4.90
2023-05-21T17:00:43.765Z,4.70
2023-05-21T17:15:45.480Z,4.93
2023-05-21T17:30:49.464Z,4.50
2023-05-21T17:45:51.616Z,4.17
2023-05-21T18:00:53.391Z,4.53
2023-05-21T18:15:55.207Z,4.50
2023-05-21T18:30:57.065Z,4.90
2023-05-21T18:45:58.917Z,5.30
2023-05-21T19:01:00.626Z,4.33
2023-05-21T19:16:02.491Z,4.30
2023-05-21T19:31:04.348Z,4.40
2023-05-21T19:46:06.095Z,4.63
2023-05-21T20:01:07.971Z,4.57
2023-05-21T20:16:10.365Z,4.93
2023-05-21T20:31:12.245Z,4.60
2023-05-21T20:46:14.091Z,4.47
2023-05-21T21:01:16.028Z,4.67
2023-05-21T21:16:17.862Z,4.00
2023-05-21T21:31:19.602Z,4.10
2023-05-21T21:46:21.352Z,4.10
2023-05-21T22:01:23.165Z,4.40
2023-05-21T22:16:25.201Z,4.30
2023-05-21T22:31:27.348Z,4.07
2023-05-21T22:46:29.148Z,4.33
2023-05-21T23:01:31.009Z,4.57
2023-05-21T23:16:32.863Z,4.20
2023-05-21T23:31:34.838Z,4.57
2023-05-21T23:46:36.571Z,4.10
